sensor_id;sensor_type;location;lat;lon;timestamp;temperature;humidity
11894;DHT22;6006;49.696;8.662;2024-01-30T00:01:02;0.40;99.90
11894;DHT22;6006;49.696;8.662;2024-01-30T00:03:29;0.40;99.90
11894;DHT22;6006;49.696;8.662;2024-01-30T00:05:56;0.40;99.90
11894;DHT22;6006;49.696;8.662;2024-01-30T00:08:24;0.40;99.90
11894;DHT22;6006;49.696;8.662;2024-01-30T00:10:51;0.40;99.90
11894;DHT22;6006;49.696;8.662;2024-01-30T00:13:18;0.40;99.90
11894;DHT22;6006;49.696;8.662;2024-01-30T00:15:45;0.40;99.90
11894;DHT22;6006;49.696;8.662;2024-01-30T00:18:12;0.40;99.90
11894;DHT22;6006;49.696;8.662;2024-01-30T00:20:39;0.40;99.90
11894;DHT22;6006;49.696;8.662;2024-01-30T00:23:06;0.40;99.90
11894;DHT22;6006;49.696;8.662;2024-01-30T00:25:34;0.40;99.90
11894;DHT22;6006;49.696;8.662;2024-01-30T00:28:01;0.30;99.90
11894;DHT22;6006;49.696;8.662;2024-01-30T00:30:28;0.40;99.90
11894;DHT22;6006;49.696;8.662;2024-01-30T00:32:55;0.40;99.90
11894;DHT22;6006;49.696;8.662;2024-01-30T00:35:21;0.40;99.90
11894;DHT22;6006;49.696;8.662;2024-01-30T00:37:48;0.40;99.90
11894;DHT22;6006;49.696;8.662;2024-01-30T00:40:15;0.30;99.90
11894;DHT22;6006;49.696;8.662;2024-01-30T00:42:44;0.30;99.90
11894;DHT22;6006;49.696;8.662;2024-01-30T00:45:14;0.30;99.90
11894;DHT22;6006;49.696;8.662;2024-01-30T00:47:41;0.30;99.90
11894;DHT22;6006;49.696;8.662;2024-01-30T00:50:08;0.30;99.90
11894;DHT22;6006;49.696;8.662;2024-01-30T00:52:35;0.30;99.90
11894;DHT22;6006;49.696;8.662;2024-01-30T00:55:05;0.20;99.90
11894;DHT22;6006;49.696;8.662;2024-01-30T00:57:32;0.20;99.90
11894;DHT22;6006;49.696;8.662;2024-01-30T01:00:00;0.20;99.90
11894;DHT22;6006;49.696;8.662;2024-01-30T01:02:27;0.20;99.90
11894;DHT22;6006;49.696;8.662;2024-01-30T01:04:54;0.20;99.90
11894;DHT22;6006;49.696;8.662;2024-01-30T01:07:21;0.20;99.90
11894;DHT22;6006;49.696;8.662;2024-01-30T01:09:48;0.30;99.90
11894;DHT22;6006;49.696;8.662;2024-01-30T01:12:14;0.30;99.90
11894;DHT22;6006;49.696;8.662;2024-01-30T01:14:41;0.30;99.90
11894;DHT22;6006;49.696;8.662;2024-01-30T01:17:09;0.20;99.90
11894;DHT22;6006;49.696;8.662;2024-01-30T01:19:35;0.20;99.90
11894;DHT22;6006;49.696;8.662;2024-01-30T01:22:02;0.30;99.90
11894;DHT22;6006;49.696;8.662;2024-01-30T01:24:31;0.30;99.90
11894;DHT22;6006;49.696;8.662;2024-01-30T01:26:58;0.30;99.90
11894;DHT22;6006;49.696;8.662;2024-01-30T01:29:25;0.30;99.90
11894;DHT22;6006;49.696;8.662;2024-01-30T01:31:54;0.30;99.90
11894;DHT22;6006;49.696;8.662;2024-01-30T01:34:23;0.30;99.90
11894;DHT22;6006;49.696;8.662;2024-01-30T01:36:50;0.20;99.90
11894;DHT22;6006;49.696;8.662;2024-01-30T01:39:17;0.20;99.90
11894;DHT22;6006;49.696;8.662;2024-01-30T01:41:44;0.20;99.90
11894;DHT22;6006;49.696;8.662;2024-01-30T01:44:11;0.10;99.90
11894;DHT22;6006;49.696;8.662;2024-01-30T01:46:38;0.10;99.90
11894;DHT22;6006;49.696;8.662;2024-01-30T01:49:05;0.10;99.90
11894;DHT22;6006;49.696;8.662;2024-01-30T01:51:36;0.10;99.90
11894;DHT22;6006;49.696;8.662;2024-01-30T01:54:04;0.10;99.90
11894;DHT22;6006;49.696;8.662;2024-01-30T01:56:31;0.10;99.90
11894;DHT22;6006;49.696;8.662;2024-01-30T01:59:02;0.00;99.90
11894;DHT22;6006;49.696;8.662;2024-01-30T02:01:31;0.00;99.90
11894;DHT22;6006;49.696;8.662;2024-01-30T02:03:59;0.00;99.90
11894;DHT22;6006;49.696;8.662;2024-01-30T02:06:26;0.00;99.90
11894;DHT22;6006;49.696;8.662;2024-01-30T02:08:55;0.00;99.90
11894;DHT22;6006;49.696;8.662;2024-01-30T02:11:22;-0.10;99.90
11894;DHT22;6006;49.696;8.662;2024-01-30T02:13:50;0.00;99.90
11894;DHT22;6006;49.696;8.662;2024-01-30T02:16:17;0.00;99.90
11894;DHT22;6006;49.696;8.662;2024-01-30T02:18:44;0.00;99.90
11894;DHT22;6006;49.696;8.662;2024-01-30T02:21:15;-0.10;99.90
11894;DHT22;6006;49.696;8.662;2024-01-30T02:23:43;-0.10;99.90
11894;DHT22;6006;49.696;8.662;2024-01-30T02:26:11;-0.10;99.90
11894;DHT22;6006;49.696;8.662;2024-01-30T02:28:38;-0.10;99.90
11894;DHT22;6006;49.696;8.662;2024-01-30T02:31:05;-0.10;99.90
11894;DHT22;6006;49.696;8.662;2024-01-30T02:33:32;-0.20;99.90
11894;DHT22;6006;49.696;8.662;2024-01-30T02:35:59;-0.20;99.90
11894;DHT22;6006;49.696;8.662;2024-01-30T02:38:27;-0.10;99.90
11894;DHT22;6006;49.696;8.662;2024-01-30T02:40:54;-0.10;99.90
11894;DHT22;6006;49.696;8.662;2024-01-30T02:43:22;-0.20;99.90
11894;DHT22;6006;49.696;8.662;2024-01-30T02:45:49;-0.20;99.90
11894;DHT22;6006;49.696;8.662;2024-01-30T02:48:15;-0.20;99.90
11894;DHT22;6006;49.696;8.662;2024-01-30T02:50:43;-0.30;99.90
11894;DHT22;6006;49.696;8.662;2024-01-30T02:53:09;-0.30;99.90
11894;DHT22;6006;49.696;8.662;2024-01-30T02:55:38;-0.30;99.90
11894;DHT22;6006;49.696;8.662;2024-01-30T02:58:04;-0.30;99.90
11894;DHT22;6006;49.696;8.662;2024-01-30T03:00:32;-0.30;99.90
11894;DHT22;6006;49.696;8.662;2024-01-30T03:02:59;-0.30;99.90
11894;DHT22;6006;49.696;8.662;2024-01-30T03:05:26;-0.30;99.90
11894;DHT22;6006;49.696;8.662;2024-01-30T03:07:53;-0.30;99.90
11894;DHT22;6006;49.696;8.662;2024-01-30T03:10:20;-0.30;99.90
11894;DHT22;6006;49.696;8.662;2024-01-30T03:12:48;-0.40;99.90
11894;DHT22;6006;49.696;8.662;2024-01-30T03:15:15;-0.40;99.90
11894;DHT22;6006;49.696;8.662;2024-01-30T03:17:42;-0.40;99.90
11894;DHT22;6006;49.696;8.662;2024-01-30T03:20:09;-0.40;99.90
11894;DHT22;6006;49.696;8.662;2024-01-30T03:22:36;-0.40;99.90
11894;DHT22;6006;49.696;8.662;2024-01-30T03:25:04;-0.30;99.90
11894;DHT22;6006;49.696;8.662;2024-01-30T03:27:31;-0.40;99.90
11894;DHT22;6006;49.696;8.662;2024-01-30T03:30:00;-0.40;99.90
11894;DHT22;6006;49.696;8.662;2024-01-30T03:32:27;-0.40;99.90
11894;DHT22;6006;49.696;8.662;2024-01-30T03:34:54;-0.40;99.90
11894;DHT22;6006;49.696;8.662;2024-01-30T03:37:21;-0.40;99.90
11894;DHT22;6006;49.696;8.662;2024-01-30T03:39:47;-0.30;99.90
11894;DHT22;6006;49.696;8.662;2024-01-30T03:42:14;-0.30;99.90
11894;DHT22;6006;49.696;8.662;2024-01-30T03:44:41;-0.40;99.90
11894;DHT22;6006;49.696;8.662;2024-01-30T03:47:10;-0.40;99.90
11894;DHT22;6006;49.696;8.662;2024-01-30T03:49:37;-0.40;99.90
11894;DHT22;6006;49.696;8.662;2024-01-30T03:52:04;-0.40;99.90
11894;DHT22;6006;49.696;8.662;2024-01-30T03:54:31;-0.40;99.90
11894;DHT22;6006;49.696;8.662;2024-01-30T03:56:58;-0.40;99.90
11894;DHT22;6006;49.696;8.662;2024-01-30T03:59:25;-0.40;99.90
11894;DHT22;6006;49.696;8.662;2024-01-30T04:01:52;-0.40;99.90
11894;DHT22;6006;49.696;8.662;2024-01-30T04:04:20;-0.50;99.90
11894;DHT22;6006;49.696;8.662;2024-01-30T04:06:47;-0.50;99.90
11894;DHT22;6006;49.696;8.662;2024-01-30T04:09:14;-0.50;99.90
11894;DHT22;6006;49.696;8.662;2024-01-30T04:11:41;-0.50;99.90
11894;DHT22;6006;49.696;8.662;2024-01-30T04:14:08;-0.50;99.90
11894;DHT22;6006;49.696;8.662;2024-01-30T04:16:35;-0.50;99.90
11894;DHT22;6006;49.696;8.662;2024-01-30T04:19:02;-0.50;99.90
11894;DHT22;6006;49.696;8.662;2024-01-30T04:21:31;-0.50;99.90
11894;DHT22;6006;49.696;8.662;2024-01-30T04:23:58;-0.50;99.90
11894;DHT22;6006;49.696;8.662;2024-01-30T04:26:24;-0.50;99.90
11894;DHT22;6006;49.696;8.662;2024-01-30T04:28:51;-0.40;99.90
11894;DHT22;6006;49.696;8.662;2024-01-30T04:31:18;-0.40;99.90
11894;DHT22;6006;49.696;8.662;2024-01-30T04:33:45;-0.40;99.90
11894;DHT22;6006;49.696;8.662;2024-01-30T04:36:12;-0.50;99.90
11894;DHT22;6006;49.696;8.662;2024-01-30T04:38:40;-0.50;99.90
11894;DHT22;6006;49.696;8.662;2024-01-30T04:41:07;-0.50;99.90
11894;DHT22;6006;49.696;8.662;2024-01-30T04:43:34;-0.60;99.90
11894;DHT22;6006;49.696;8.662;2024-01-30T04:46:01;-0.60;99.90
11894;DHT22;6006;49.696;8.662;2024-01-30T04:48:28;-0.60;99.90
11894;DHT22;6006;49.696;8.662;2024-01-30T04:50:55;-0.60;99.90
11894;DHT22;6006;49.696;8.662;2024-01-30T04:53:22;-0.60;99.90
11894;DHT22;6006;49.696;8.662;2024-01-30T04:55:50;-0.60;99.90
11894;DHT22;6006;49.696;8.662;2024-01-30T04:58:17;-0.60;99.90
11894;DHT22;6006;49.696;8.662;2024-01-30T05:00:44;-0.60;99.90
11894;DHT22;6006;49.696;8.662;2024-01-30T05:03:11;-0.60;99.90
11894;DHT22;6006;49.696;8.662;2024-01-30T05:05:38;-0.60;99.90
11894;DHT22;6006;49.696;8.662;2024-01-30T05:08:05;-0.60;99.90
11894;DHT22;6006;49.696;8.662;2024-01-30T05:10:32;-0.60;99.90
11894;DHT22;6006;49.696;8.662;2024-01-30T05:13:01;-0.50;99.90
11894;DHT22;6006;49.696;8.662;2024-01-30T05:15:27;-0.40;99.90
11894;DHT22;6006;49.696;8.662;2024-01-30T05:17:54;-0.40;99.90
11894;DHT22;6006;49.696;8.662;2024-01-30T05:20:21;-0.30;99.90
11894;DHT22;6006;49.696;8.662;2024-01-30T05:22:48;-0.20;99.90
11894;DHT22;6006;49.696;8.662;2024-01-30T05:25:15;-0.20;99.90
11894;DHT22;6006;49.696;8.662;2024-01-30T05:27:42;-0.20;99.90
11894;DHT22;6006;49.696;8.662;2024-01-30T05:30:11;-0.20;99.90
11894;DHT22;6006;49.696;8.662;2024-01-30T05:32:38;-0.30;99.90
11894;DHT22;6006;49.696;8.662;2024-01-30T05:35:05;-0.30;99.90
11894;DHT22;6006;49.696;8.662;2024-01-30T05:37:33;-0.40;99.90
11894;DHT22;6006;49.696;8.662;2024-01-30T05:40:00;-0.40;99.90
11894;DHT22;6006;49.696;8.662;2024-01-30T05:42:27;-0.30;99.90
11894;DHT22;6006;49.696;8.662;2024-01-30T05:44:54;-0.40;99.90
11894;DHT22;6006;49.696;8.662;2024-01-30T05:47:22;-0.40;99.90
11894;DHT22;6006;49.696;8.662;2024-01-30T05:49:49;-0.50;99.90
11894;DHT22;6006;49.696;8.662;2024-01-30T05:52:16;-0.50;99.90
11894;DHT22;6006;49.696;8.662;2024-01-30T05:54:44;-0.50;99.90
11894;DHT22;6006;49.696;8.662;2024-01-30T05:57:11;-0.50;99.90
11894;DHT22;6006;49.696;8.662;2024-01-30T05:59:38;-0.50;99.90
11894;DHT22;6006;49.696;8.662;2024-01-30T06:02:04;-0.50;99.90
11894;DHT22;6006;49.696;8.662;2024-01-30T06:04:33;-0.40;99.90
11894;DHT22;6006;49.696;8.662;2024-01-30T06:06:59;-0.40;99.90
11894;DHT22;6006;49.696;8.662;2024-01-30T06:09:27;-0.40;99.90
11894;DHT22;6006;49.696;8.662;2024-01-30T06:11:54;-0.30;99.90
11894;DHT22;6006;49.696;8.662;2024-01-30T06:14:21;-0.20;99.90
11894;DHT22;6006;49.696;8.662;2024-01-30T06:16:48;-0.30;99.90
11894;DHT22;6006;49.696;8.662;2024-01-30T06:19:15;-0.40;99.90
11894;DHT22;6006;49.696;8.662;2024-01-30T06:21:44;-0.40;99.90
11894;DHT22;6006;49.696;8.662;2024-01-30T06:24:10;-0.40;99.90
11894;DHT22;6006;49.696;8.662;2024-01-30T06:26:37;-0.40;99.90
11894;DHT22;6006;49.696;8.662;2024-01-30T06:29:04;-0.40;99.90
11894;DHT22;6006;49.696;8.662;2024-01-30T06:31:31;-0.40;99.90
11894;DHT22;6006;49.696;8.662;2024-01-30T06:33:58;-0.40;99.90
11894;DHT22;6006;49.696;8.662;2024-01-30T06:36:25;-0.40;99.90
11894;DHT22;6006;49.696;8.662;2024-01-30T06:38:53;-0.40;99.90
11894;DHT22;6006;49.696;8.662;2024-01-30T06:41:20;-0.40;99.90
11894;DHT22;6006;49.696;8.662;2024-01-30T06:43:47;-0.50;99.90
11894;DHT22;6006;49.696;8.662;2024-01-30T06:46:13;-0.50;99.90
11894;DHT22;6006;49.696;8.662;2024-01-30T06:48:40;-0.40;99.90
11894;DHT22;6006;49.696;8.662;2024-01-30T06:51:10;-0.30;99.90
11894;DHT22;6006;49.696;8.662;2024-01-30T06:53:37;-0.20;99.90
11894;DHT22;6006;49.696;8.662;2024-01-30T06:56:06;-0.20;99.90
11894;DHT22;6006;49.696;8.662;2024-01-30T06:58:33;-0.30;99.90
11894;DHT22;6006;49.696;8.662;2024-01-30T07:01:00;-0.30;99.90
11894;DHT22;6006;49.696;8.662;2024-01-30T07:03:27;-0.30;99.90
11894;DHT22;6006;49.696;8.662;2024-01-30T07:05:54;-0.20;99.90
11894;DHT22;6006;49.696;8.662;2024-01-30T07:08:21;-0.20;99.90
11894;DHT22;6006;49.696;8.662;2024-01-30T07:10:48;-0.20;99.90
11894;DHT22;6006;49.696;8.662;2024-01-30T07:13:18;0.00;99.90
11894;DHT22;6006;49.696;8.662;2024-01-30T07:15:45;0.20;99.90
11894;DHT22;6006;49.696;8.662;2024-01-30T07:18:12;0.10;99.90
11894;DHT22;6006;49.696;8.662;2024-01-30T07:20:40;0.00;99.90
11894;DHT22;6006;49.696;8.662;2024-01-30T07:23:11;0.00;99.90
11894;DHT22;6006;49.696;8.662;2024-01-30T07:25:39;0.00;99.90
11894;DHT22;6006;49.696;8.662;2024-01-30T07:28:07;0.10;99.90
11894;DHT22;6006;49.696;8.662;2024-01-30T07:30:36;0.10;99.90
11894;DHT22;6006;49.696;8.662;2024-01-30T07:33:03;0.50;99.90
11894;DHT22;6006;49.696;8.662;2024-01-30T07:35:30;0.10;99.90
11894;DHT22;6006;49.696;8.662;2024-01-30T07:37:56;0.10;99.90
11894;DHT22;6006;49.696;8.662;2024-01-30T07:40:24;0.20;99.90
11894;DHT22;6006;49.696;8.662;2024-01-30T07:42:50;0.20;99.90
11894;DHT22;6006;49.696;8.662;2024-01-30T07:45:17;0.30;99.90
11894;DHT22;6006;49.696;8.662;2024-01-30T07:47:49;0.30;99.90
11894;DHT22;6006;49.696;8.662;2024-01-30T07:50:16;0.40;99.90
11894;DHT22;6006;49.696;8.662;2024-01-30T07:52:43;0.30;99.90
11894;DHT22;6006;49.696;8.662;2024-01-30T07:55:10;0.40;99.90
11894;DHT22;6006;49.696;8.662;2024-01-30T07:57:38;0.40;99.90
11894;DHT22;6006;49.696;8.662;2024-01-30T08:00:06;0.50;99.90
11894;DHT22;6006;49.696;8.662;2024-01-30T08:02:33;0.60;99.90
11894;DHT22;6006;49.696;8.662;2024-01-30T08:05:02;0.50;99.90
11894;DHT22;6006;49.696;8.662;2024-01-30T08:07:29;0.60;99.90
11894;DHT22;6006;49.696;8.662;2024-01-30T08:09:56;0.60;99.90
11894;DHT22;6006;49.696;8.662;2024-01-30T08:12:23;0.70;99.90
11894;DHT22;6006;49.696;8.662;2024-01-30T08:14:50;0.80;99.90
11894;DHT22;6006;49.696;8.662;2024-01-30T08:17:17;0.90;99.90
11894;DHT22;6006;49.696;8.662;2024-01-30T08:19:44;1.00;99.90
11894;DHT22;6006;49.696;8.662;2024-01-30T08:22:12;1.00;99.90
11894;DHT22;6006;49.696;8.662;2024-01-30T08:24:40;1.10;99.90
11894;DHT22;6006;49.696;8.662;2024-01-30T08:27:07;1.20;99.90
11894;DHT22;6006;49.696;8.662;2024-01-30T08:29:35;1.30;99.90
11894;DHT22;6006;49.696;8.662;2024-01-30T08:32:02;1.30;99.90
11894;DHT22;6006;49.696;8.662;2024-01-30T08:34:29;1.30;99.90
11894;DHT22;6006;49.696;8.662;2024-01-30T08:36:55;1.40;99.90
11894;DHT22;6006;49.696;8.662;2024-01-30T08:39:24;1.60;99.90
11894;DHT22;6006;49.696;8.662;2024-01-30T08:41:51;1.70;99.90
11894;DHT22;6006;49.696;8.662;2024-01-30T08:44:17;1.70;99.90
11894;DHT22;6006;49.696;8.662;2024-01-30T08:46:44;1.80;99.90
11894;DHT22;6006;49.696;8.662;2024-01-30T08:49:12;1.90;99.90
11894;DHT22;6006;49.696;8.662;2024-01-30T08:51:40;2.00;99.90
11894;DHT22;6006;49.696;8.662;2024-01-30T08:54:06;2.10;99.90
11894;DHT22;6006;49.696;8.662;2024-01-30T08:56:35;2.20;99.90
11894;DHT22;6006;49.696;8.662;2024-01-30T08:59:02;2.30;99.90
11894;DHT22;6006;49.696;8.662;2024-01-30T09:01:28;2.40;99.90
11894;DHT22;6006;49.696;8.662;2024-01-30T09:03:56;2.50;99.90
11894;DHT22;6006;49.696;8.662;2024-01-30T09:06:23;2.60;99.90
11894;DHT22;6006;49.696;8.662;2024-01-30T09:08:52;2.60;99.90
11894;DHT22;6006;49.696;8.662;2024-01-30T09:11:19;2.80;99.90
11894;DHT22;6006;49.696;8.662;2024-01-30T09:13:47;2.80;99.90
11894;DHT22;6006;49.696;8.662;2024-01-30T09:16:14;3.00;99.90
11894;DHT22;6006;49.696;8.662;2024-01-30T09:18:42;3.00;99.90
11894;DHT22;6006;49.696;8.662;2024-01-30T09:21:10;3.10;99.90
11894;DHT22;6006;49.696;8.662;2024-01-30T09:23:36;3.10;99.90
11894;DHT22;6006;49.696;8.662;2024-01-30T09:26:04;3.20;99.90
11894;DHT22;6006;49.696;8.662;2024-01-30T09:28:30;3.40;99.90
11894;DHT22;6006;49.696;8.662;2024-01-30T09:30:58;3.50;99.90
11894;DHT22;6006;49.696;8.662;2024-01-30T09:33:25;3.60;99.90
11894;DHT22;6006;49.696;8.662;2024-01-30T09:35:52;3.70;99.90
11894;DHT22;6006;49.696;8.662;2024-01-30T09:38:19;3.80;99.90
11894;DHT22;6006;49.696;8.662;2024-01-30T09:40:50;4.00;99.90
11894;DHT22;6006;49.696;8.662;2024-01-30T09:43:22;4.10;99.90
11894;DHT22;6006;49.696;8.662;2024-01-30T09:45:50;4.30;99.90
11894;DHT22;6006;49.696;8.662;2024-01-30T09:48:19;4.50;99.90
11894;DHT22;6006;49.696;8.662;2024-01-30T09:50:46;4.70;99.90
11894;DHT22;6006;49.696;8.662;2024-01-30T09:53:14;4.90;99.90
11894;DHT22;6006;49.696;8.662;2024-01-30T09:55:43;4.90;99.90
11894;DHT22;6006;49.696;8.662;2024-01-30T09:58:12;5.10;99.90
11894;DHT22;6006;49.696;8.662;2024-01-30T10:00:39;5.30;99.90
11894;DHT22;6006;49.696;8.662;2024-01-30T10:03:05;5.60;99.90
11894;DHT22;6006;49.696;8.662;2024-01-30T10:05:35;5.80;99.90
11894;DHT22;6006;49.696;8.662;2024-01-30T10:08:06;6.00;99.90
11894;DHT22;6006;49.696;8.662;2024-01-30T10:10:33;6.30;99.90
11894;DHT22;6006;49.696;8.662;2024-01-30T10:13:00;6.50;99.90
11894;DHT22;6006;49.696;8.662;2024-01-30T10:15:28;6.80;99.90
11894;DHT22;6006;49.696;8.662;2024-01-30T10:17:55;7.00;99.90
11894;DHT22;6006;49.696;8.662;2024-01-30T10:20:22;7.20;1.00
11894;DHT22;6006;49.696;8.662;2024-01-30T10:22:52;7.50;99.90
11894;DHT22;6006;49.696;8.662;2024-01-30T10:25:21;7.70;99.90
11894;DHT22;6006;49.696;8.662;2024-01-30T10:27:52;7.90;1.00
11894;DHT22;6006;49.696;8.662;2024-01-30T10:30:20;8.40;99.90
11894;DHT22;6006;49.696;8.662;2024-01-30T10:32:47;8.60;1.00
11894;DHT22;6006;49.696;8.662;2024-01-30T10:35:14;8.70;1.00
11894;DHT22;6006;49.696;8.662;2024-01-30T10:37:43;8.80;1.00
11894;DHT22;6006;49.696;8.662;2024-01-30T10:40:13;9.10;1.00
11894;DHT22;6006;49.696;8.662;2024-01-30T10:42:43;9.20;1.00
11894;DHT22;6006;49.696;8.662;2024-01-30T10:45:11;9.40;1.00
11894;DHT22;6006;49.696;8.662;2024-01-30T10:47:40;9.50;1.00
11894;DHT22;6006;49.696;8.662;2024-01-30T10:50:08;9.50;1.00
11894;DHT22;6006;49.696;8.662;2024-01-30T10:52:36;9.70;1.00
11894;DHT22;6006;49.696;8.662;2024-01-30T10:55:04;9.60;1.00
11894;DHT22;6006;49.696;8.662;2024-01-30T10:57:35;9.60;1.00
11894;DHT22;6006;49.696;8.662;2024-01-30T11:00:04;9.70;1.00
11894;DHT22;6006;49.696;8.662;2024-01-30T11:02:36;9.60;1.00
11894;DHT22;6006;49.696;8.662;2024-01-30T11:05:04;9.70;1.00
11894;DHT22;6006;49.696;8.662;2024-01-30T11:07:32;9.80;1.00
11894;DHT22;6006;49.696;8.662;2024-01-30T11:10:03;10.00;99.90
11894;DHT22;6006;49.696;8.662;2024-01-30T11:12:31;10.10;99.90
11894;DHT22;6006;49.696;8.662;2024-01-30T11:15:05;10.20;1.00
11894;DHT22;6006;49.696;8.662;2024-01-30T11:17:43;10.10;99.90
11894;DHT22;6006;49.696;8.662;2024-01-30T11:20:11;10.00;1.00
11894;DHT22;6006;49.696;8.662;2024-01-30T11:22:41;9.90;1.00
11894;DHT22;6006;49.696;8.662;2024-01-30T11:25:11;10.10;99.90
11894;DHT22;6006;49.696;8.662;2024-01-30T11:27:39;10.20;99.90
11894;DHT22;6006;49.696;8.662;2024-01-30T11:30:08;10.20;99.90
11894;DHT22;6006;49.696;8.662;2024-01-30T11:32:35;10.30;99.90
11894;DHT22;6006;49.696;8.662;2024-01-30T11:35:03;10.30;99.90
11894;DHT22;6006;49.696;8.662;2024-01-30T11:37:32;10.40;99.90
11894;DHT22;6006;49.696;8.662;2024-01-30T11:40:03;10.30;99.90
11894;DHT22;6006;49.696;8.662;2024-01-30T11:42:30;10.40;99.90
11894;DHT22;6006;49.696;8.662;2024-01-30T11:44:59;10.40;99.90
11894;DHT22;6006;49.696;8.662;2024-01-30T11:47:28;10.40;99.90
11894;DHT22;6006;49.696;8.662;2024-01-30T11:49:55;10.20;99.90
11894;DHT22;6006;49.696;8.662;2024-01-30T11:52:22;10.00;99.90
11894;DHT22;6006;49.696;8.662;2024-01-30T11:54:50;10.00;99.90
11894;DHT22;6006;49.696;8.662;2024-01-30T11:57:17;9.90;99.90
11894;DHT22;6006;49.696;8.662;2024-01-30T11:59:44;9.90;99.90
11894;DHT22;6006;49.696;8.662;2024-01-30T12:02:15;9.90;99.90
11894;DHT22;6006;49.696;8.662;2024-01-30T12:04:44;9.90;99.90
11894;DHT22;6006;49.696;8.662;2024-01-30T12:07:11;9.90;99.90
11894;DHT22;6006;49.696;8.662;2024-01-30T12:09:38;10.10;99.90
11894;DHT22;6006;49.696;8.662;2024-01-30T12:12:07;10.10;99.90
11894;DHT22;6006;49.696;8.662;2024-01-30T12:14:37;10.10;99.90
11894;DHT22;6006;49.696;8.662;2024-01-30T12:17:04;10.30;99.90
11894;DHT22;6006;49.696;8.662;2024-01-30T12:19:33;10.40;99.90
11894;DHT22;6006;49.696;8.662;2024-01-30T12:22:01;10.40;99.90
11894;DHT22;6006;49.696;8.662;2024-01-30T12:24:28;10.20;99.90
11894;DHT22;6006;49.696;8.662;2024-01-30T12:26:57;10.40;99.90
11894;DHT22;6006;49.696;8.662;2024-01-30T12:29:24;10.40;99.90
11894;DHT22;6006;49.696;8.662;2024-01-30T12:31:53;10.50;99.90
11894;DHT22;6006;49.696;8.662;2024-01-30T12:34:20;10.30;99.90
11894;DHT22;6006;49.696;8.662;2024-01-30T12:36:47;10.30;99.90
11894;DHT22;6006;49.696;8.662;2024-01-30T12:39:17;10.20;99.90
11894;DHT22;6006;49.696;8.662;2024-01-30T12:41:44;10.40;99.90
11894;DHT22;6006;49.696;8.662;2024-01-30T12:44:11;10.20;99.90
11894;DHT22;6006;49.696;8.662;2024-01-30T12:46:40;10.30;99.90
11894;DHT22;6006;49.696;8.662;2024-01-30T12:49:06;10.30;99.90
11894;DHT22;6006;49.696;8.662;2024-01-30T12:51:34;10.30;99.90
11894;DHT22;6006;49.696;8.662;2024-01-30T12:54:05;10.40;99.90
11894;DHT22;6006;49.696;8.662;2024-01-30T12:56:33;10.30;99.90
11894;DHT22;6006;49.696;8.662;2024-01-30T12:59:00;10.30;99.90
11894;DHT22;6006;49.696;8.662;2024-01-30T13:01:27;10.30;99.90
11894;DHT22;6006;49.696;8.662;2024-01-30T13:03:54;10.20;99.90
11894;DHT22;6006;49.696;8.662;2024-01-30T13:06:23;10.20;99.90
11894;DHT22;6006;49.696;8.662;2024-01-30T13:08:49;10.40;99.90
11894;DHT22;6006;49.696;8.662;2024-01-30T13:11:16;10.50;99.90
11894;DHT22;6006;49.696;8.662;2024-01-30T13:13:45;10.30;99.90
11894;DHT22;6006;49.696;8.662;2024-01-30T13:16:12;10.30;99.90
11894;DHT22;6006;49.696;8.662;2024-01-30T13:18:38;10.30;99.90
11894;DHT22;6006;49.696;8.662;2024-01-30T13:21:05;10.40;99.90
11894;DHT22;6006;49.696;8.662;2024-01-30T13:23:32;10.30;99.90
11894;DHT22;6006;49.696;8.662;2024-01-30T13:25:59;10.40;99.90
11894;DHT22;6006;49.696;8.662;2024-01-30T13:28:26;10.60;99.90
11894;DHT22;6006;49.696;8.662;2024-01-30T13:30:54;10.70;99.90
11894;DHT22;6006;49.696;8.662;2024-01-30T13:33:21;10.60;99.90
11894;DHT22;6006;49.696;8.662;2024-01-30T13:35:48;10.80;99.90
11894;DHT22;6006;49.696;8.662;2024-01-30T13:38:15;10.80;99.90
11894;DHT22;6006;49.696;8.662;2024-01-30T13:40:42;10.80;99.90
11894;DHT22;6006;49.696;8.662;2024-01-30T13:43:09;10.80;99.90
11894;DHT22;6006;49.696;8.662;2024-01-30T13:45:36;10.80;99.90
11894;DHT22;6006;49.696;8.662;2024-01-30T13:48:05;10.70;99.90
11894;DHT22;6006;49.696;8.662;2024-01-30T13:50:32;10.70;99.90
11894;DHT22;6006;49.696;8.662;2024-01-30T13:52:59;10.70;99.90
11894;DHT22;6006;49.696;8.662;2024-01-30T13:55:26;10.60;99.90
11894;DHT22;6006;49.696;8.662;2024-01-30T13:57:53;10.40;99.90
11894;DHT22;6006;49.696;8.662;2024-01-30T14:00:21;10.50;99.90
11894;DHT22;6006;49.696;8.662;2024-01-30T14:02:48;10.60;99.90
11894;DHT22;6006;49.696;8.662;2024-01-30T14:05:17;10.70;99.90
11894;DHT22;6006;49.696;8.662;2024-01-30T14:07:44;10.50;99.90
11894;DHT22;6006;49.696;8.662;2024-01-30T14:10:11;10.50;99.90
11894;DHT22;6006;49.696;8.662;2024-01-30T14:12:38;10.60;99.90
11894;DHT22;6006;49.696;8.662;2024-01-30T14:15:07;10.50;99.90
11894;DHT22;6006;49.696;8.662;2024-01-30T14:17:35;10.50;99.90
11894;DHT22;6006;49.696;8.662;2024-01-30T14:20:02;10.50;99.90
11894;DHT22;6006;49.696;8.662;2024-01-30T14:22:31;10.40;99.90
11894;DHT22;6006;49.696;8.662;2024-01-30T14:24:59;10.40;99.90
11894;DHT22;6006;49.696;8.662;2024-01-30T14:27:25;10.40;99.90
11894;DHT22;6006;49.696;8.662;2024-01-30T14:29:52;10.30;99.90
11894;DHT22;6006;49.696;8.662;2024-01-30T14:32:20;10.20;99.90
11894;DHT22;6006;49.696;8.662;2024-01-30T14:34:47;10.30;99.90
11894;DHT22;6006;49.696;8.662;2024-01-30T14:37:14;10.30;99.90
11894;DHT22;6006;49.696;8.662;2024-01-30T14:39:42;10.30;99.90
11894;DHT22;6006;49.696;8.662;2024-01-30T14:42:09;10.40;99.90
11894;DHT22;6006;49.696;8.662;2024-01-30T14:44:36;10.30;99.90
11894;DHT22;6006;49.696;8.662;2024-01-30T14:47:03;10.20;99.90
11894;DHT22;6006;49.696;8.662;2024-01-30T14:49:30;10.10;99.90
11894;DHT22;6006;49.696;8.662;2024-01-30T14:51:57;10.10;99.90
11894;DHT22;6006;49.696;8.662;2024-01-30T14:54:24;10.10;99.90
11894;DHT22;6006;49.696;8.662;2024-01-30T14:56:52;10.10;1.00
11894;DHT22;6006;49.696;8.662;2024-01-30T14:59:19;10.10;99.90
11894;DHT22;6006;49.696;8.662;2024-01-30T15:01:47;10.10;1.00
11894;DHT22;6006;49.696;8.662;2024-01-30T15:04:13;10.10;1.00
11894;DHT22;6006;49.696;8.662;2024-01-30T15:06:40;10.10;1.00
11894;DHT22;6006;49.696;8.662;2024-01-30T15:09:10;10.10;1.00
11894;DHT22;6006;49.696;8.662;2024-01-30T15:11:40;10.10;1.00
11894;DHT22;6006;49.696;8.662;2024-01-30T15:14:08;10.10;1.00
11894;DHT22;6006;49.696;8.662;2024-01-30T15:16:35;10.00;1.00
11894;DHT22;6006;49.696;8.662;2024-01-30T15:19:02;9.90;1.00
11894;DHT22;6006;49.696;8.662;2024-01-30T15:21:30;9.90;1.00
11894;DHT22;6006;49.696;8.662;2024-01-30T15:23:57;10.00;1.00
11894;DHT22;6006;49.696;8.662;2024-01-30T15:26:24;10.00;1.00
11894;DHT22;6006;49.696;8.662;2024-01-30T15:28:51;10.00;1.00
11894;DHT22;6006;49.696;8.662;2024-01-30T15:31:19;10.00;1.00
11894;DHT22;6006;49.696;8.662;2024-01-30T15:33:47;10.00;1.00
11894;DHT22;6006;49.696;8.662;2024-01-30T15:36:14;9.80;1.00
11894;DHT22;6006;49.696;8.662;2024-01-30T15:38:41;9.70;1.00
11894;DHT22;6006;49.696;8.662;2024-01-30T15:41:09;9.70;1.00
11894;DHT22;6006;49.696;8.662;2024-01-30T15:43:36;9.70;1.00
11894;DHT22;6006;49.696;8.662;2024-01-30T15:46:03;9.70;1.00
11894;DHT22;6006;49.696;8.662;2024-01-30T15:48:31;9.70;1.00
11894;DHT22;6006;49.696;8.662;2024-01-30T15:50:58;9.60;1.00
11894;DHT22;6006;49.696;8.662;2024-01-30T15:53:26;9.50;1.00
11894;DHT22;6006;49.696;8.662;2024-01-30T15:55:53;9.50;1.00